Time;durP1;ratioP1;P1;durP2;ratioP2;P2;SDS_P1;SDS_P2;PMS_P1;PMS_P2;Temp;Humidity;BMP_temperature;BMP_pressure;BME280_temperature;BME280_humidity;BME280_pressure;Samples;Min_cycle;Max_cycle;Signal;HPM_P1;HPM_P2
2022/04/13 00:00:42;;;;;;;8.40;4.60;;;11.30;53.00;;;;;;4882342;29;20178;-86
2022/04/13 00:03:08;;;;;;;7.70;3.80;;;11.20;53.60;;;;;;4881641;29;20198;-85
2022/04/13 00:05:33;;;;;;;7.30;3.53;;;11.30;53.00;;;;;;4881841;29;20210;-85
2022/04/13 00:08:00;;;;;;;5.73;3.40;;;11.30;53.10;;;;;;4881337;29;20270;-85
2022/04/13 00:10:26;;;;;;;7.07;3.97;;;11.30;52.80;;;;;;4882595;29;20159;-86
2022/04/13 00:12:51;;;;;;;6.23;3.63;;;11.20;53.60;;;;;;4881203;29;20174;-86
2022/04/13 00:15:17;;;;;;;6.97;3.50;;;11.20;53.00;;;;;;4882667;29;20649;-85
2022/04/13 00:17:42;;;;;;;8.20;3.87;;;11.10;53.80;;;;;;4884060;29;20186;-84
2022/04/13 00:20:09;;;;;;;7.30;3.93;;;11.10;53.10;;;;;;4882006;29;20202;-85
2022/04/13 00:22:34;;;;;;;7.20;3.67;;;11.20;52.90;;;;;;4881753;29;20217;-85
2022/04/13 00:25:00;;;;;;;7.67;3.83;;;11.20;52.60;;;;;;4881860;29;20189;-85
2022/04/13 00:27:25;;;;;;;5.40;3.77;;;11.20;53.00;;;;;;4881572;29;20189;-85
2022/04/13 00:29:51;;;;;;;5.20;3.77;;;11.10;53.40;;;;;;4881139;29;20208;-85
2022/04/13 00:32:17;;;;;;;6.03;3.53;;;11.10;52.80;;;;;;4882875;29;20174;-85
2022/04/13 00:34:42;;;;;;;5.50;3.47;;;11.20;52.80;;;;;;4882581;29;20181;-85
2022/04/13 00:37:08;;;;;;;5.87;3.27;;;11.10;53.50;;;;;;4881256;29;20174;-85
2022/04/13 00:39:33;;;;;;;9.30;4.00;;;11.10;53.00;;;;;;4881061;29;20222;-85
2022/04/13 00:42:02;;;;;;;6.87;4.37;;;11.10;52.50;;;;;;4880966;29;20224;-85
2022/04/13 00:44:29;;;;;;;5.10;3.07;;;11.10;52.90;;;;;;4881004;29;20201;-85
2022/04/13 00:46:55;;;;;;;6.03;3.80;;;11.00;53.00;;;;;;4880977;29;20218;-85
2022/04/13 00:49:22;;;;;;;5.17;3.20;;;11.00;53.10;;;;;;4879573;29;20748;-85
2022/04/13 00:51:48;;;;;;;5.23;3.50;;;11.00;53.00;;;;;;4880836;29;20261;-86
2022/04/13 00:54:17;;;;;;;5.90;3.57;;;10.90;53.40;;;;;;4879472;29;20273;-85
2022/04/13 00:56:45;;;;;;;7.30;3.73;;;10.90;53.30;;;;;;4880696;29;20291;-85
2022/04/13 00:59:13;;;;;;;9.97;3.73;;;10.90;53.60;;;;;;4880602;29;20576;-85
2022/04/13 01:01:42;;;;;;;4.50;3.63;;;10.90;53.80;;;;;;4880647;29;20772;-85
2022/04/13 01:04:11;;;;;;;6.70;3.93;;;10.80;54.10;;;;;;4879278;29;20178;-85
2022/04/13 01:06:38;;;;;;;7.33;3.67;;;10.80;53.70;;;;;;4879378;29;20174;-85
2022/04/13 01:09:04;;;;;;;5.23;3.70;;;10.80;53.90;;;;;;4879146;29;20218;-85
2022/04/13 01:11:30;;;;;;;5.57;3.63;;;10.80;54.00;;;;;;4879243;29;20707;-85
2022/04/13 01:13:56;;;;;;;9.00;3.77;;;10.80;53.70;;;;;;4879213;29;20758;-86
2022/04/13 01:16:23;;;;;;;4.73;3.50;;;10.80;54.20;;;;;;4880573;29;20261;-86
2022/04/13 01:18:49;;;;;;;6.70;3.90;;;10.70;54.50;;;;;;4880286;29;20673;-86
2022/04/13 01:21:17;;;;;;;6.33;4.03;;;10.70;54.20;;;;;;4880554;29;20234;-84
2022/04/13 01:23:43;;;;;;;6.93;4.00;;;10.70;54.30;;;;;;4879027;29;20174;-85
2022/04/13 01:26:10;;;;;;;8.57;3.73;;;10.80;54.30;;;;;;4880257;29;20238;-86
2022/04/13 01:28:36;;;;;;;5.63;3.63;;;10.80;54.70;;;;;;4878868;29;20553;-85
2022/04/13 01:31:02;;;;;;;4.23;3.63;;;10.80;54.50;;;;;;4878537;29;20230;-86
2022/04/13 01:33:31;;;;;;;5.43;4.00;;;10.80;54.10;;;;;;4878837;29;20174;-86
2022/04/13 01:36:00;;;;;;;9.27;4.03;;;10.80;54.50;;;;;;4880092;29;20174;-86
2022/04/13 01:38:27;;;;;;;8.73;3.67;;;10.80;54.40;;;;;;4879946;29;20554;-86
2022/04/13 01:40:54;;;;;;;7.87;4.60;;;10.80;54.10;;;;;;4880190;29;20222;-86
2022/04/13 01:43:19;;;;;;;6.30;3.93;;;10.80;54.40;;;;;;4878623;29;20209;-86
2022/04/13 01:45:45;;;;;;;6.80;4.20;;;10.90;53.90;;;;;;4878717;29;20186;-86
2022/04/13 01:48:11;;;;;;;6.43;3.97;;;10.80;54.80;;;;;;4879826;29;20195;-86
2022/04/13 01:50:36;;;;;;;6.60;4.13;;;10.80;54.50;;;;;;4880097;29;20178;-86
2022/04/13 01:53:02;;;;;;;6.00;4.00;;;10.80;55.00;;;;;;4879789;29;20178;-85
2022/04/13 01:55:27;;;;;;;7.97;4.33;;;10.80;54.60;;;;;;4878510;29;20641;-86
2022/04/13 01:57:53;;;;;;;8.37;4.80;;;10.70;55.50;;;;;;4879939;29;20233;-86
2022/04/13 02:00:18;;;;;;;13.80;4.03;;;10.70;55.40;;;;;;4878437;29;20709;-86
2022/04/13 02:02:46;;;;;;;7.67;4.37;;;10.70;55.50;;;;;;4879556;29;20202;-86
2022/04/13 02:05:12;;;;;;;9.23;4.90;;;10.70;55.80;;;;;;4879618;29;20174;-86
2022/04/13 02:07:38;;;;;;;8.83;4.17;;;10.70;55.60;;;;;;4880066;29;20205;-86
2022/04/13 02:10:05;;;;;;;7.47;4.60;;;10.60;55.70;;;;;;4880020;29;20171;-86
2022/04/13 02:12:32;;;;;;;5.30;4.20;;;10.60;55.90;;;;;;4878504;29;20182;-86
2022/04/13 02:14:57;;;;;;;4.90;4.20;;;10.60;56.60;;;;;;4879609;29;20202;-86
2022/04/13 02:17:23;;;;;;;8.10;4.10;;;10.50;56.70;;;;;;4878496;29;20619;-86
2022/04/13 02:19:49;;;;;;;6.40;4.00;;;10.40;57.00;;;;;;4878345;29;20225;-86
2022/04/13 02:22:14;;;;;;;7.40;4.53;;;10.40;56.80;;;;;;4879637;29;20257;-86
2022/04/13 02:24:40;;;;;;;7.77;4.43;;;10.40;57.30;;;;;;4879598;29;20178;-86
2022/04/13 02:27:07;;;;;;;7.00;4.20;;;10.30;57.40;;;;;;4879934;29;20177;-86
2022/04/13 02:29:34;;;;;;;8.77;4.83;;;10.40;57.30;;;;;;4878223;29;20205;-86
2022/04/13 02:32:01;;;;;;;9.97;4.50;;;10.30;57.80;;;;;;4879488;29;20174;-86
2022/04/13 02:34:26;;;;;;;10.83;5.13;;;10.30;58.00;;;;;;4879444;29;20178;-86
2022/04/13 02:36:52;;;;;;;9.87;5.00;;;10.30;57.80;;;;;;4878588;29;20196;-87
2022/04/13 02:39:17;;;;;;;8.47;5.10;;;10.30;57.80;;;;;;4878236;29;20201;-86
2022/04/13 02:41:43;;;;;;;7.13;5.10;;;10.30;58.10;;;;;;4879508;29;20206;-86
2022/04/13 02:44:09;;;;;;;10.00;4.90;;;10.30;58.40;;;;;;4882645;29;20178;-86
2022/04/13 02:46:34;;;;;;;9.07;4.80;;;10.30;58.50;;;;;;4882219;29;20182;-86
2022/04/13 02:49:00;;;;;;;8.37;5.17;;;10.30;58.30;;;;;;4883211;29;20237;-86
2022/04/13 02:51:25;;;;;;;10.00;5.10;;;10.30;58.60;;;;;;4882064;29;20193;-86
2022/04/13 02:53:51;;;;;;;7.87;5.10;;;10.30;58.60;;;;;;4883293;29;20588;-86
2022/04/13 02:56:17;;;;;;;6.70;4.33;;;10.30;58.60;;;;;;4881856;29;20182;-86
2022/04/13 02:58:42;;;;;;;8.57;4.90;;;10.30;58.30;;;;;;4881592;29;20293;-86
2022/04/13 03:01:08;;;;;;;9.27;5.27;;;10.40;58.00;;;;;;4882776;29;20257;-86
2022/04/13 03:03:34;;;;;;;6.23;4.50;;;10.30;58.50;;;;;;4883053;29;20680;-86
2022/04/13 03:06:00;;;;;;;7.90;5.00;;;10.30;58.50;;;;;;4882925;29;20637;-86
2022/04/13 03:08:25;;;;;;;8.27;5.60;;;10.30;58.50;;;;;;4881443;29;20214;-86
2022/04/13 03:10:51;;;;;;;7.53;5.13;;;10.30;59.00;;;;;;4881623;29;20174;-87
2022/04/13 03:13:17;;;;;;;8.43;4.97;;;10.30;59.00;;;;;;4881752;29;20224;-86
2022/04/13 03:15:42;;;;;;;7.53;5.20;;;10.30;59.10;;;;;;4882654;29;20183;-87
2022/04/13 03:18:08;;;;;;;9.37;5.43;;;10.30;58.20;;;;;;4882317;29;20342;-87
2022/04/13 03:20:34;;;;;;;10.00;5.63;;;10.30;59.40;;;;;;4881568;29;20193;-86
2022/04/13 03:23:01;;;;;;;9.60;5.20;;;10.20;59.70;;;;;;4881581;29;20220;-86
2022/04/13 03:25:27;;;;;;;6.70;5.40;;;10.20;59.90;;;;;;4881710;29;20299;-86
2022/04/13 03:27:52;;;;;;;9.20;5.17;;;10.20;59.80;;;;;;4882767;29;20732;-86
2022/04/13 03:30:18;;;;;;;9.73;5.93;;;10.20;59.90;;;;;;4881324;29;20267;-86
2022/04/13 03:32:43;;;;;;;11.73;5.60;;;10.10;60.30;;;;;;4881350;29;20192;-86
2022/04/13 03:35:11;;;;;;;8.20;5.30;;;10.10;59.70;;;;;;4882463;29;20261;-85
2022/04/13 03:37:40;;;;;;;8.73;5.90;;;10.10;59.80;;;;;;4882402;29;20226;-85
2022/04/13 03:40:07;;;;;;;8.63;5.73;;;10.10;59.60;;;;;;4882353;29;20201;-85
2022/04/13 03:42:37;;;;;;;10.83;6.20;;;10.10;59.00;;;;;;4882182;29;20641;-85
2022/04/13 03:45:07;;;;;;;8.47;6.10;;;10.10;59.50;;;;;;4882193;29;20189;-86
2022/04/13 03:47:33;;;;;;;8.00;5.40;;;10.10;59.60;;;;;;4881432;29;20606;-86
2022/04/13 03:49:58;;;;;;;10.43;5.90;;;10.10;59.50;;;;;;4882122;29;20209;-86
2022/04/13 03:52:24;;;;;;;11.93;5.17;;;10.00;59.90;;;;;;4881095;29;20566;-86
2022/04/13 03:54:50;;;;;;;8.10;5.53;;;10.00;60.50;;;;;;4881778;29;20186;-86
2022/04/13 03:57:15;;;;;;;10.43;6.27;;;9.90;60.30;;;;;;4880749;29;20229;-86
2022/04/13 03:59:41;;;;;;;9.03;6.57;;;9.80;60.50;;;;;;4882009;29;20209;-86
2022/04/13 04:02:06;;;;;;;11.33;5.80;;;9.80;60.40;;;;;;4880559;29;20216;-86
2022/04/13 04:04:32;;;;;;;10.93;6.30;;;9.80;60.50;;;;;;4881945;29;20178;-86
2022/04/13 04:06:58;;;;;;;8.77;5.93;;;9.80;60.60;;;;;;4881896;29;20257;-86
2022/04/13 04:09:23;;;;;;;9.60;5.93;;;9.70;60.70;;;;;;4880290;29;20217;-86
2022/04/13 04:11:49;;;;;;;9.87;6.03;;;9.70;61.10;;;;;;4880529;29;20189;-86
2022/04/13 04:14:14;;;;;;;15.37;6.07;;;9.60;61.30;;;;;;4881806;29;20186;-86
2022/04/13 04:16:40;;;;;;;12.77;6.60;;;9.60;61.10;;;;;;4881828;29;20186;-86
2022/04/13 04:19:06;;;;;;;11.60;5.47;;;9.50;61.40;;;;;;4881589;29;20289;-86
2022/04/13 04:21:31;;;;;;;10.00;6.53;;;9.50;61.20;;;;;;4880432;29;20224;-86
2022/04/13 04:23:57;;;;;;;9.57;5.70;;;9.50;61.60;;;;;;4880299;29;20185;-85
2022/04/13 04:26:23;;;;;;;13.13;7.20;;;9.50;61.80;;;;;;4880290;29;20191;-86
2022/04/13 04:28:48;;;;;;;12.30;6.90;;;9.40;62.10;;;;;;4881283;29;20208;-86
2022/04/13 04:31:19;;;;;;;8.77;6.20;;;9.40;62.50;;;;;;4881661;29;20188;-86
2022/04/13 04:33:45;;;;;;;7.43;5.83;;;9.40;62.50;;;;;;4880235;29;20649;-86
2022/04/13 04:36:10;;;;;;;11.03;6.93;;;9.30;62.30;;;;;;4881536;29;20190;-86
2022/04/13 04:38:37;;;;;;;10.20;5.43;;;9.30;62.20;;;;;;4881441;29;20221;-86
2022/04/13 04:41:03;;;;;;;18.73;6.70;;;9.30;62.50;;;;;;4879920;29;20246;-86
2022/04/13 04:43:31;;;;;;;8.87;6.20;;;9.30;62.80;;;;;;4881095;29;20209;-86
2022/04/13 04:45:58;;;;;;;7.60;5.63;;;9.20;63.50;;;;;;4881134;29;20166;-86
2022/04/13 04:48:23;;;;;;;12.43;6.10;;;9.20;63.00;;;;;;4881060;29;20197;-86
2022/04/13 04:50:49;;;;;;;11.07;6.00;;;9.20;63.00;;;;;;4879904;29;20272;-86
2022/04/13 04:53:14;;;;;;;11.23;6.60;;;9.30;63.00;;;;;;4879826;29;20207;-86
2022/04/13 04:55:42;;;;;;;9.77;5.90;;;9.30;62.80;;;;;;4879678;29;20185;-86
2022/04/13 04:58:09;;;;;;;14.13;6.80;;;9.20;63.50;;;;;;4879548;29;20672;-86
2022/04/13 05:00:36;;;;;;;12.53;6.57;;;9.20;64.30;;;;;;4880962;29;20184;-86
2022/04/13 05:03:02;;;;;;;18.87;6.60;;;9.20;64.10;;;;;;4881053;29;20607;-86
2022/04/13 05:05:28;;;;;;;9.60;6.67;;;9.20;64.40;;;;;;4880357;29;20238;-87
2022/04/13 05:07:53;;;;;;;9.83;7.07;;;9.10;64.30;;;;;;4880623;29;20677;-86
2022/04/13 05:10:19;;;;;;;16.77;6.20;;;9.10;64.20;;;;;;4879594;29;20177;-86
2022/04/13 05:12:49;;;;;;;8.57;6.63;;;9.10;63.70;;;;;;4880789;29;20174;-86
2022/04/13 05:15:15;;;;;;;13.17;7.07;;;9.10;64.50;;;;;;4879539;29;20181;-91
2022/04/13 05:17:42;;;;;;;12.80;6.73;;;9.20;65.20;;;;;;4879431;29;20186;-86
2022/04/13 05:20:08;;;;;;;8.33;6.10;;;9.10;65.40;;;;;;4880737;29;20236;-86
2022/04/13 05:22:34;;;;;;;10.53;6.70;;;9.10;65.40;;;;;;4880449;29;20217;-86
2022/04/13 05:25:13;;;;;;;9.80;6.30;;;9.10;65.50;;;;;;4880552;29;20232;-86
2022/04/13 05:27:39;;;;;;;11.17;6.03;;;9.20;65.80;;;;;;4879119;29;20178;-86
2022/04/13 05:30:06;;;;;;;9.30;6.03;;;9.20;65.70;;;;;;4879189;29;20189;-86
2022/04/13 05:32:44;;;;;;;10.87;7.10;;;9.20;65.60;;;;;;4879135;29;20644;-85
2022/04/13 05:35:10;;;;;;;10.80;6.30;;;9.20;65.90;;;;;;4880518;29;20170;-86
2022/04/13 05:37:35;;;;;;;9.27;6.30;;;9.20;65.70;;;;;;4879109;29;20182;-86
2022/04/13 05:40:01;;;;;;;13.23;6.43;;;9.20;65.50;;;;;;4879379;29;20645;-86
2022/04/13 05:42:26;;;;;;;15.00;7.30;;;9.20;65.80;;;;;;4879182;29;20210;-86
2022/04/13 05:44:52;;;;;;;9.07;6.30;;;9.30;66.50;;;;;;4880289;29;20170;-86
2022/04/13 05:47:17;;;;;;;12.93;7.30;;;9.30;66.20;;;;;;4880179;29;20185;-86
2022/04/13 05:49:43;;;;;;;12.00;6.30;;;9.30;66.20;;;;;;4880178;29;20194;-86
2022/04/13 05:52:09;;;;;;;13.33;6.90;;;9.30;65.70;;;;;;4878938;29;20197;-86
2022/04/13 05:54:34;;;;;;;10.20;6.90;;;9.40;65.60;;;;;;4880169;29;20648;-86
2022/04/13 05:57:02;;;;;;;11.23;6.80;;;9.40;65.70;;;;;;4880183;29;20276;-86
2022/04/13 05:59:28;;;;;;;13.23;6.93;;;9.50;65.40;;;;;;4879012;29;20692;-87
2022/04/13 06:01:54;;;;;;;10.97;6.80;;;9.60;65.40;;;;;;4878808;29;20214;-85
2022/04/13 06:04:19;;;;;;;11.67;7.40;;;9.60;65.70;;;;;;4878711;29;20789;-86
2022/04/13 06:06:45;;;;;;;12.50;6.73;;;9.70;66.00;;;;;;4878807;29;20600;-87
2022/04/13 06:09:11;;;;;;;17.60;6.93;;;9.80;66.70;;;;;;4880014;29;20265;-86
2022/04/13 06:11:36;;;;;;;10.30;6.87;;;9.80;66.70;;;;;;4880336;29;20178;-86
2022/04/13 06:14:02;;;;;;;10.97;6.30;;;9.90;67.20;;;;;;4879918;29;20528;-86
2022/04/13 06:16:28;;;;;;;10.27;6.60;;;10.00;67.00;;;;;;4878712;29;20190;-86
2022/04/13 06:18:53;;;;;;;10.53;6.50;;;10.00;66.90;;;;;;4878462;29;20669;-86
2022/04/13 06:21:19;;;;;;;13.50;6.93;;;10.10;67.10;;;;;;4878549;29;20174;-86
2022/04/13 06:23:45;;;;;;;13.70;6.63;;;10.20;67.40;;;;;;4878885;29;20174;-85
2022/04/13 06:26:10;;;;;;;10.07;6.77;;;10.20;66.90;;;;;;4879789;29;20178;-86
2022/04/13 06:28:36;;;;;;;13.13;7.13;;;10.20;66.50;;;;;;4879845;29;20221;-86
2022/04/13 06:31:01;;;;;;;12.43;7.13;;;10.20;65.30;;;;;;4878572;29;20182;-86
2022/04/13 06:33:27;;;;;;;10.07;7.03;;;10.30;66.10;;;;;;4899272;23;20212;-91
2022/04/13 06:35:52;;;;;;;13.63;7.53;;;10.30;65.50;;;;;;4844603;29;20642;-91
2022/04/13 06:38:18;;;;;;;9.37;6.97;;;10.30;65.60;;;;;;4844434;29;20209;-91
2022/04/13 06:40:43;;;;;;;12.33;7.37;;;10.40;65.50;;;;;;4844725;29;20191;-91
2022/04/13 06:43:09;;;;;;;8.60;6.90;;;10.40;65.00;;;;;;4844924;29;20214;-91
2022/04/13 06:45:36;;;;;;;13.77;7.07;;;10.50;65.20;;;;;;4844601;29;20185;-91
2022/04/13 06:48:02;;;;;;;12.90;7.30;;;10.50;65.40;;;;;;4844624;29;20667;-91
2022/04/13 06:50:28;;;;;;;13.37;7.70;;;10.60;65.20;;;;;;4844525;29;20709;-91
2022/04/13 06:52:53;;;;;;;10.93;7.47;;;10.60;65.50;;;;;;4844731;29;20186;-91
2022/04/13 06:55:19;;;;;;;9.20;7.17;;;10.70;66.20;;;;;;4844671;29;20258;-91
2022/04/13 06:57:44;;;;;;;10.77;7.70;;;10.70;66.80;;;;;;4844517;29;20190;-91
2022/04/13 07:00:12;;;;;;;12.07;7.87;;;10.80;67.00;;;;;;4844818;29;20187;-91
2022/04/13 07:02:38;;;;;;;12.73;7.20;;;10.80;67.00;;;;;;4844301;29;20215;-91
2022/04/13 07:05:05;;;;;;;9.83;6.50;;;10.90;66.20;;;;;;4844379;29;20199;-91
2022/04/13 07:07:31;;;;;;;12.27;7.10;;;11.00;66.10;;;;;;4845130;29;20179;-92
2022/04/13 07:09:56;;;;;;;14.50;7.53;;;11.00;65.10;;;;;;4844415;29;20661;-91
2022/04/13 07:12:22;;;;;;;10.80;7.00;;;11.00;65.60;;;;;;4844384;29;20214;-91
2022/04/13 07:14:48;;;;;;;14.17;8.13;;;11.00;65.10;;;;;;4844316;29;20621;-91
2022/04/13 07:17:13;;;;;;;12.20;7.77;;;11.00;65.60;;;;;;4844202;29;20182;-91
2022/04/13 07:19:39;;;;;;;10.30;7.67;;;11.00;64.60;;;;;;4844373;29;20270;-91
2022/04/13 07:22:05;;;;;;;9.90;7.90;;;11.00;63.90;;;;;;4844298;29;20240;-91
2022/04/13 07:24:31;;;;;;;22.83;8.20;;;11.00;64.00;;;;;;4843913;29;20577;-91
2022/04/13 07:26:56;;;;;;;15.23;7.23;;;11.00;64.90;;;;;;4844080;29;20565;-91
2022/04/13 07:29:22;;;;;;;16.90;7.70;;;11.20;65.10;;;;;;4845572;29;20185;-91
2022/04/13 07:31:47;;;;;;;10.07;8.10;;;11.20;64.50;;;;;;4847466;29;20222;-91
2022/04/13 07:34:13;;;;;;;13.70;7.83;;;11.30;63.60;;;;;;4847708;29;20218;-91
2022/04/13 07:36:39;;;;;;;11.10;7.53;;;11.40;63.60;;;;;;4847392;29;20190;-91
2022/04/13 07:39:04;;;;;;;15.43;8.00;;;11.50;63.90;;;;;;4848308;29;20195;-91
2022/04/13 07:41:30;;;;;;;11.10;7.80;;;11.60;62.90;;;;;;4847522;29;20247;-91
2022/04/13 07:43:57;;;;;;;13.37;7.10;;;11.70;62.90;;;;;;4847136;29;20202;-91
2022/04/13 07:46:25;;;;;;;10.43;7.53;;;11.80;63.60;;;;;;4847185;29;20292;-91
2022/04/13 07:48:51;;;;;;;15.17;7.93;;;11.80;62.20;;;;;;4847308;29;20218;-91
2022/04/13 07:51:17;;;;;;;11.40;7.30;;;11.90;63.70;;;;;;4846888;29;20191;-91
2022/04/13 07:53:42;;;;;;;13.37;7.67;;;11.90;62.90;;;;;;4863437;29;20194;-91
2022/04/13 07:56:08;;;;;;;12.63;7.83;;;11.90;62.90;;;;;;4846975;29;20277;-90
2022/04/13 07:58:34;;;;;;;14.90;7.50;;;11.90;62.60;;;;;;4846853;29;20218;-89
2022/04/13 08:00:59;;;;;;;11.30;7.67;;;12.10;63.50;;;;;;4863309;29;20642;-91
2022/04/13 08:03:25;;;;;;;12.53;7.47;;;12.30;62.50;;;;;;4847317;29;20313;-91
2022/04/13 08:05:51;;;;;;;10.50;8.07;;;12.30;62.20;;;;;;4846997;29;20183;-91
2022/04/13 08:08:16;;;;;;;12.33;7.03;;;12.40;62.60;;;;;;4847460;29;20323;-91
2022/04/13 08:10:43;;;;;;;18.10;8.60;;;12.50;62.20;;;;;;4848864;29;20207;-92
2022/04/13 08:13:08;;;;;;;11.27;7.37;;;12.50;62.60;;;;;;4847333;29;20689;-91
2022/04/13 08:15:34;;;;;;;12.80;7.30;;;12.50;62.20;;;;;;4847704;29;20190;-91
2022/04/13 08:17:59;;;;;;;13.67;7.73;;;12.60;62.60;;;;;;4847489;29;20201;-91
2022/04/13 08:20:25;;;;;;;12.97;7.17;;;12.80;63.00;;;;;;4847081;29;20197;-91
2022/04/13 08:22:51;;;;;;;12.80;8.10;;;12.80;63.70;;;;;;4846927;29;20210;-92
2022/04/13 08:25:17;;;;;;;15.73;7.67;;;13.00;63.40;;;;;;4846697;29;20588;-92
2022/04/13 08:27:43;;;;;;;10.87;8.27;;;13.10;63.30;;;;;;4846882;29;20238;-92
2022/04/13 08:30:09;;;;;;;13.67;8.17;;;13.10;62.40;;;;;;4847172;29;20656;-92
2022/04/13 08:32:36;;;;;;;10.17;7.13;;;13.20;61.90;;;;;;4846579;29;20195;-92
2022/04/13 08:35:05;;;;;;;17.37;7.93;;;13.30;61.50;;;;;;4846236;29;20218;-92
2022/04/13 08:37:32;;;;;;;14.10;8.33;;;13.40;61.90;;;;;;4846733;29;20667;-91
2022/04/13 08:39:57;;;;;;;13.70;8.50;;;13.50;61.80;;;;;;4862354;29;20187;-92
2022/04/13 08:43:04;;;;;;;11.90;8.10;;;13.70;60.80;;;;;;4846426;29;20210;-91
2022/04/13 08:45:34;;;;;;;17.60;8.63;;;13.80;60.90;;;;;;4846510;29;20213;-92
2022/04/13 08:48:04;;;;;;;12.80;8.27;;;13.90;61.20;;;;;;4846872;29;20174;-92
2022/04/13 08:50:31;;;;;;;11.13;7.63;;;14.10;61.50;;;;;;4847341;29;20507;-92
2022/04/13 08:52:59;;;;;;;14.07;7.70;;;14.20;60.50;;;;;;4845979;29;20238;-91
2022/04/13 08:55:26;;;;;;;11.57;7.87;;;14.30;61.40;;;;;;4846253;29;20207;-92
2022/04/13 08:58:35;;;;;;;12.43;8.13;;;14.30;60.20;;;;;;4846212;29;20269;-92
2022/04/13 09:01:12;;;;;;;10.40;8.30;;;14.30;60.70;;;;;;4850128;29;20182;-92
2022/04/13 09:03:43;;;;;;;10.57;7.67;;;14.50;61.80;;;;;;4849246;29;20218;-92
2022/04/13 09:06:10;;;;;;;14.40;8.40;;;14.50;61.00;;;;;;4849417;29;20241;-92
2022/04/13 09:08:52;;;;;;;9.93;8.07;;;14.50;60.90;;;;;;4848526;29;20182;-92
2022/04/13 09:11:21;;;;;;;17.10;8.07;;;14.60;62.20;;;;;;4850755;29;20262;-92
2022/04/13 09:13:47;;;;;;;11.43;8.53;;;14.80;60.90;;;;;;4848211;29;20203;-92
2022/04/13 09:16:13;;;;;;;13.70;8.27;;;14.90;62.00;;;;;;4862888;29;20187;-91
2022/04/13 09:18:39;;;;;;;15.40;10.00;;;14.90;61.10;;;;;;4846076;29;20239;-91
2022/04/13 09:21:05;;;;;;;12.77;8.63;;;15.10;60.80;;;;;;4861890;29;20175;-90
2022/04/13 09:23:31;;;;;;;12.93;8.65;;;15.20;62.40;;;;;;4845115;29;20226;-91
2022/04/13 09:25:58;;;;;;;12.30;8.43;;;15.40;60.10;;;;;;4845194;29;20646;-91
2022/04/13 09:28:24;;;;;;;10.97;8.83;;;15.50;61.00;;;;;;4861739;29;20179;-91
2022/04/13 09:30:52;;;;;;;13.57;8.48;;;15.70;59.80;;;;;;4861763;29;20518;-90
2022/04/13 09:33:18;;;;;;;12.10;7.90;;;15.90;59.80;;;;;;4845128;29;20285;-92
2022/04/13 09:35:44;;;;;;;13.43;8.57;;;15.80;58.30;;;;;;4847504;29;20225;-92
2022/04/13 09:38:09;;;;;;;14.20;9.18;;;16.00;58.00;;;;;;4845965;29;20183;-92
2022/04/13 09:40:37;;;;;;;13.07;8.68;;;16.20;58.40;;;;;;4846306;29;20194;-92
2022/04/13 09:43:24;;;;;;;13.85;8.60;;;16.40;59.20;;;;;;4845191;29;20215;-92
2022/04/13 09:45:52;;;;;;;15.63;10.10;;;16.60;57.40;;;;;;4845542;29;20175;-92
2022/04/13 09:48:19;;;;;;;18.90;9.80;;;16.60;57.00;;;;;;4846652;29;20201;-92
2022/04/13 09:50:47;;;;;;;16.65;10.13;;;16.70;57.50;;;;;;4845875;29;20186;-92
2022/04/13 09:53:14;;;;;;;14.43;9.57;;;16.90;58.50;;;;;;4845385;29;20327;-93
2022/04/13 09:56:04;;;;;;;29.67;11.20;;;17.00;57.60;;;;;;4847974;29;20650;-91
2022/04/13 09:58:30;;;;;;;24.23;11.25;;;17.20;55.20;;;;;;4847078;29;20198;-93
2022/04/13 10:01:07;;;;;;;14.93;10.27;;;16.90;56.80;;;;;;4845185;29;20183;-92
2022/04/13 10:03:32;;;;;;;18.50;11.13;;;17.20;57.60;;;;;;4844895;29;20753;-92
2022/04/13 10:05:59;;;;;;;16.50;11.85;;;17.20;56.90;;;;;;4844983;29;20183;-92
2022/04/13 10:08:28;;;;;;;24.45;11.38;;;17.30;56.50;;;;;;4845494;29;20265;-92
2022/04/13 10:10:58;;;;;;;18.80;11.50;;;17.40;56.30;;;;;;4845228;29;20178;-92
2022/04/13 10:14:00;;;;;;;26.30;13.07;;;17.30;56.90;;;;;;4845043;29;20175;-92
2022/04/13 10:16:31;;;;;;;22.23;11.57;;;17.40;58.10;;;;;;4861447;29;20606;-92
2022/04/13 10:19:05;;;;;;;21.40;12.00;;;17.60;56.10;;;;;;4844749;29;20179;-92
2022/04/13 10:21:40;;;;;;;18.30;11.80;;;17.70;57.20;;;;;;4844691;29;20189;-90
2022/04/13 10:24:09;;;;;;;20.23;11.50;;;17.80;56.00;;;;;;4845912;29;20329;-91
2022/04/13 10:26:39;;;;;;;19.70;11.50;;;17.90;56.40;;;;;;4845737;29;20277;-92
2022/04/13 10:29:16;;;;;;;21.60;12.82;;;18.30;56.00;;;;;;4846071;29;20254;-92
2022/04/13 10:32:01;;;;;;;24.92;12.90;;;18.20;56.80;;;;;;4845320;29;20185;-92
2022/04/13 10:34:31;;;;;;;20.55;12.02;;;18.20;55.20;;;;;;4845498;29;20229;-91
2022/04/13 10:36:57;;;;;;;29.67;12.60;;;18.50;55.00;;;;;;4845427;29;20273;-92
2022/04/13 10:39:23;;;;;;;39.30;19.58;;;18.60;55.10;;;;;;4846448;29;20185;-92
2022/04/13 10:41:48;;;;;;;20.75;11.43;;;18.80;54.00;;;;;;4844956;29;20305;-92
2022/04/13 10:44:22;;;;;;;18.30;12.07;;;18.80;55.00;;;;;;4845073;29;20652;-91
2022/04/13 10:46:51;;;;;;;19.17;11.82;;;18.90;55.50;;;;;;4844957;29;20178;-90
2022/04/13 10:49:23;;;;;;;19.23;12.35;;;19.20;54.20;;;;;;4844891;29;20214;-93
2022/04/13 10:51:53;;;;;;;21.27;11.98;;;19.20;55.00;;;;;;4844996;29;20178;-92
2022/04/13 10:54:24;;;;;;;17.88;11.45;;;19.30;55.10;;;;;;4845193;29;20214;-93
2022/04/13 10:56:56;;;;;;;24.15;13.55;;;19.20;54.80;;;;;;4861500;29;20190;-92
2022/04/13 10:59:43;;;;;;;23.77;13.07;;;19.00;54.20;;;;;;4861623;29;20159;-92
2022/04/13 11:02:28;;;;;;;21.05;11.68;;;19.10;54.80;;;;;;4845239;29;20206;-92
2022/04/13 11:04:56;;;;;;;24.60;12.60;;;19.70;54.40;;;;;;4847542;29;20203;-92
2022/04/13 11:07:24;;;;;;;24.45;12.00;;;19.50;52.80;;;;;;4848556;29;20182;-92
2022/04/13 11:09:56;;;;;;;22.42;12.75;;;19.40;54.50;;;;;;4848711;29;20189;-93
2022/04/13 11:12:22;;;;;;;25.40;11.82;;;19.70;53.40;;;;;;4849487;29;20266;-92
2022/04/13 11:14:54;;;;;;;21.95;10.27;;;19.60;54.10;;;;;;4848573;29;20242;-93
2022/04/13 11:17:19;;;;;;;19.45;9.23;;;20.00;53.80;;;;;;4848508;29;20187;-92
2022/04/13 11:19:48;;;;;;;32.13;11.57;;;20.00;52.10;;;;;;4849047;29;20189;-93
2022/04/13 11:22:16;;;;;;;25.90;11.73;;;20.40;51.10;;;;;;4848468;29;20206;-92
2022/04/13 11:24:49;;;;;;;27.10;11.50;;;20.10;53.30;;;;;;4848558;29;20203;-92
2022/04/13 11:27:15;;;;;;;18.95;11.20;;;20.10;52.50;;;;;;4848689;29;20179;-92
2022/04/13 11:29:41;;;;;;;16.58;10.85;;;20.40;51.20;;;;;;4848593;29;20554;-92
2022/04/13 11:32:16;;;;;;;23.50;11.65;;;20.20;52.20;;;;;;4848509;29;20530;-92
2022/04/13 11:34:50;;;;;;;23.10;11.13;;;20.40;52.10;;;;;;4848809;29;20637;-92
2022/04/13 11:37:23;;;;;;;23.00;11.10;;;20.40;52.70;;;;;;4851567;29;20187;-92
2022/04/13 11:39:49;;;;;;;24.83;11.35;;;20.80;53.20;;;;;;4847648;29;20189;-93
2022/04/13 11:42:20;;;;;;;23.75;12.45;;;21.20;51.20;;;;;;4847496;29;20202;-93
2022/04/13 11:44:47;;;;;;;18.10;10.52;;;20.50;52.70;;;;;;4847846;29;20230;-92
2022/04/13 11:47:15;;;;;;;17.48;10.45;;;20.30;53.20;;;;;;4859131;29;20163;-93
2022/04/13 11:50:00;;;;;;;24.77;10.40;;;20.20;55.00;;;;;;4860479;29;20198;-93
2022/04/13 11:52:54;;;;;;;24.70;11.82;;;21.10;54.20;;;;;;4859594;29;20650;-93
2022/04/13 11:55:45;;;;;;;23.63;10.20;;;20.90;52.80;;;;;;4857847;29;20207;-93
2022/04/13 11:58:12;;;;;;;20.40;10.70;;;21.10;50.50;;;;;;4872897;29;20175;-93
2022/04/13 12:00:44;;;;;;;21.60;10.75;;;21.20;52.60;;;;;;4869410;29;20175;-93
2022/04/13 12:03:21;;;;;;;21.98;10.68;;;21.20;52.10;;;;;;4850558;29;20233;-93
2022/04/13 12:05:50;;;;;;;28.05;11.73;;;21.00;51.20;;;;;;4853544;29;20202;-93
2022/04/13 12:08:44;;;;;;;17.25;10.52;;;20.90;53.00;;;;;;4871009;29;20258;-91
2022/04/13 12:11:16;;;;;;;17.02;9.80;;;20.90;53.40;;;;;;4850810;29;20241;-92
2022/04/13 12:13:59;;;;;;;18.58;9.82;;;21.50;52.50;;;;;;4851042;29;20582;-93
2022/04/13 12:16:28;;;;;;;18.15;10.20;;;21.80;51.10;;;;;;4848664;29;20178;-92
2022/04/13 12:19:05;;;;;;;18.17;10.50;;;21.50;53.90;;;;;;4846793;29;20182;-91
2022/04/13 12:21:32;;;;;;;21.60;10.43;;;21.90;51.50;;;;;;4864706;29;20178;-93
2022/04/13 12:24:01;;;;;;;18.42;10.93;;;21.80;51.70;;;;;;4852673;29;20202;-93
2022/04/13 12:26:32;;;;;;;19.40;10.32;;;21.30;51.30;;;;;;4848184;29;20179;-93
2022/04/13 12:28:58;;;;;;;19.30;10.48;;;21.60;52.50;;;;;;4849457;29;20554;-92
2022/04/13 12:31:27;;;;;;;25.90;10.82;;;21.90;53.20;;;;;;4847250;29;20175;-92
2022/04/13 12:33:58;;;;;;;15.90;8.95;;;22.20;51.60;;;;;;4846321;29;20697;-92
2022/04/13 12:36:23;;;;;;;20.75;9.93;;;22.70;51.90;;;;;;4847179;29;20232;-92
2022/04/13 12:38:55;;;;;;;22.33;11.15;;;22.00;51.30;;;;;;4846289;29;20179;-92
2022/04/13 12:41:22;;;;;;;20.88;9.90;;;21.90;53.80;;;;;;4849941;29;20175;-92
2022/04/13 12:43:50;;;;;;;19.38;10.27;;;22.20;52.70;;;;;;4846626;29;20689;-92